Terminal Aerodrome Forecast
Issued by NWS

Home | Current Version | Previous Version | Text Only | Print | Product List | Glossary On
Versions: 1 2 3 4 5 6 7 8 9 10 11 12 13 14 15 16
000
FTUS46 KSEW 252327
TAFBFI
TAF
KBFI 252327Z 2600/2624 30007KT P6SM FEW050 FEW250
     FM260300 30004KT P6SM SCT050
     FM260500 VRB03KT P6SM SCT050
     FM261100 18003KT P6SM BKN012 OVC040
     FM261900 22004KT P6SM SCT020 SCT045
     FM262100 29005KT P6SM FEW045=

USA.gov is the U.S. government's official web portal to all federal, state and local government web resources and services.